sensor_id;sensor_type;location;lat;lon;timestamp;pressure;altitude;pressure_sealevel;temperature;humidity
38630;BME280;24384;51.988;4.644;2023-08-08T00:01:43;101443.44;;;16.16;100.00
38630;BME280;24384;51.988;4.644;2023-08-08T00:04:09;101440.56;;;16.21;100.00
38630;BME280;24384;51.988;4.644;2023-08-08T00:06:35;101444.09;;;16.21;100.00
38630;BME280;24384;51.988;4.644;2023-08-08T00:09:01;101441.06;;;16.29;100.00
38630;BME280;24384;51.988;4.644;2023-08-08T00:11:27;101444.09;;;16.21;100.00
38630;BME280;24384;51.988;4.644;2023-08-08T00:13:53;101443.56;;;16.32;100.00
38630;BME280;24384;51.988;4.644;2023-08-08T00:16:18;101437.19;;;16.36;100.00
38630;BME280;24384;51.988;4.644;2023-08-08T00:18:43;101428.53;;;16.31;100.00
38630;BME280;24384;51.988;4.644;2023-08-08T00:21:08;101436.09;;;16.21;100.00
38630;BME280;24384;51.988;4.644;2023-08-08T00:23:34;101425.38;;;16.23;100.00
38630;BME280;24384;51.988;4.644;2023-08-08T00:25:59;101438.06;;;16.18;100.00
38630;BME280;24384;51.988;4.644;2023-08-08T00:28:25;101433.66;;;16.17;100.00
38630;BME280;24384;51.988;4.644;2023-08-08T00:30:51;101430.28;;;16.13;100.00
38630;BME280;24384;51.988;4.644;2023-08-08T00:33:16;101428.75;;;16.26;100.00
38630;BME280;24384;51.988;4.644;2023-08-08T00:35:41;101427.81;;;16.27;100.00
38630;BME280;24384;51.988;4.644;2023-08-08T00:38:07;101425.72;;;16.34;100.00
38630;BME280;24384;51.988;4.644;2023-08-08T00:40:32;101436.88;;;16.42;100.00
38630;BME280;24384;51.988;4.644;2023-08-08T00:42:57;101434.38;;;16.39;100.00
38630;BME280;24384;51.988;4.644;2023-08-08T00:45:23;101436.06;;;16.40;100.00
38630;BME280;24384;51.988;4.644;2023-08-08T00:47:49;101428.66;;;16.47;100.00
38630;BME280;24384;51.988;4.644;2023-08-08T00:50:15;101427.22;;;16.40;100.00
38630;BME280;24384;51.988;4.644;2023-08-08T00:52:41;101431.56;;;16.42;100.00
38630;BME280;24384;51.988;4.644;2023-08-08T00:55:08;101424.78;;;16.35;100.00
38630;BME280;24384;51.988;4.644;2023-08-08T00:57:34;101418.31;;;16.41;100.00
38630;BME280;24384;51.988;4.644;2023-08-08T01:00:07;101417.94;;;16.29;100.00
38630;BME280;24384;51.988;4.644;2023-08-08T01:02:34;101416.47;;;16.24;100.00
38630;BME280;24384;51.988;4.644;2023-08-08T01:05:00;101420.75;;;16.26;100.00
38630;BME280;24384;51.988;4.644;2023-08-08T01:07:31;101422.66;;;16.24;100.00
38630;BME280;24384;51.988;4.644;2023-08-08T01:10:07;101419.44;;;16.18;100.00
38630;BME280;24384;51.988;4.644;2023-08-08T01:12:39;101421.94;;;16.21;100.00
38630;BME280;24384;51.988;4.644;2023-08-08T01:15:07;101434.28;;;16.22;100.00
38630;BME280;24384;51.988;4.644;2023-08-08T01:17:33;101426.81;;;16.11;100.00
38630;BME280;24384;51.988;4.644;2023-08-08T01:20:00;101430.44;;;16.10;100.00
38630;BME280;24384;51.988;4.644;2023-08-08T01:23:18;101432.81;;;16.16;100.00
38630;BME280;24384;51.988;4.644;2023-08-08T01:25:17;101427.63;;;16.13;100.00
38630;BME280;24384;51.988;4.644;2023-08-08T01:27:43;101422.44;;;16.10;100.00
38630;BME280;24384;51.988;4.644;2023-08-08T01:30:09;101428.84;;;16.06;100.00
38630;BME280;24384;51.988;4.644;2023-08-08T01:32:35;101421.91;;;16.02;100.00
38630;BME280;24384;51.988;4.644;2023-08-08T01:35:00;101421.91;;;16.02;100.00
38630;BME280;24384;51.988;4.644;2023-08-08T01:37:32;101432.56;;;16.02;100.00
38630;BME280;24384;51.988;4.644;2023-08-08T01:39:59;101429.81;;;16.03;100.00
38630;BME280;24384;51.988;4.644;2023-08-08T01:42:26;101423.94;;;15.97;100.00
38630;BME280;24384;51.988;4.644;2023-08-08T01:44:53;101426.53;;;15.98;99.91
38630;BME280;24384;51.988;4.644;2023-08-08T01:47:19;101418.41;;;16.01;98.49
38630;BME280;24384;51.988;4.644;2023-08-08T01:49:44;101419.63;;;15.94;99.45
38630;BME280;24384;51.988;4.644;2023-08-08T01:52:09;101419.81;;;15.89;99.27
38630;BME280;24384;51.988;4.644;2023-08-08T01:54:35;101419.34;;;15.81;99.25
38630;BME280;24384;51.988;4.644;2023-08-08T01:57:00;101416.31;;;15.89;98.60
38630;BME280;24384;51.988;4.644;2023-08-08T01:59:25;101416.66;;;15.81;98.44
38630;BME280;24384;51.988;4.644;2023-08-08T02:01:50;101415.97;;;15.78;98.67
38630;BME280;24384;51.988;4.644;2023-08-08T02:04:16;101415.09;;;15.77;98.53
38630;BME280;24384;51.988;4.644;2023-08-08T02:06:41;101413.31;;;15.78;97.83
38630;BME280;24384;51.988;4.644;2023-08-08T02:09:06;101406.16;;;15.78;98.24
38630;BME280;24384;51.988;4.644;2023-08-08T02:11:32;101399.16;;;15.77;98.37
38630;BME280;24384;51.988;4.644;2023-08-08T02:13:57;101408.09;;;15.74;98.04
38630;BME280;24384;51.988;4.644;2023-08-08T02:16:22;101401.19;;;15.70;98.58
38630;BME280;24384;51.988;4.644;2023-08-08T02:18:48;101404.13;;;15.64;98.78
38630;BME280;24384;51.988;4.644;2023-08-08T02:21:13;101400.38;;;15.68;98.04
38630;BME280;24384;51.988;4.644;2023-08-08T02:23:38;101403.41;;;15.61;97.83
38630;BME280;24384;51.988;4.644;2023-08-08T02:26:03;101410.38;;;15.63;98.16
38630;BME280;24384;51.988;4.644;2023-08-08T02:28:29;101409.97;;;15.52;98.51
38630;BME280;24384;51.988;4.644;2023-08-08T02:30:54;101401.09;;;15.53;97.78
38630;BME280;24384;51.988;4.644;2023-08-08T02:33:20;101400.09;;;15.55;97.84
38630;BME280;24384;51.988;4.644;2023-08-08T02:35:45;101402.63;;;15.58;96.87
38630;BME280;24384;51.988;4.644;2023-08-08T02:38:10;101405.47;;;15.54;97.94
38630;BME280;24384;51.988;4.644;2023-08-08T02:40:35;101402.00;;;15.52;98.15
38630;BME280;24384;51.988;4.644;2023-08-08T02:43:01;101399.47;;;15.49;97.55
38630;BME280;24384;51.988;4.644;2023-08-08T02:45:26;101392.53;;;15.46;97.51
38630;BME280;24384;51.988;4.644;2023-08-08T02:47:51;101394.50;;;15.41;96.73
38630;BME280;24384;51.988;4.644;2023-08-08T02:50:17;101394.66;;;15.38;96.38
38630;BME280;24384;51.988;4.644;2023-08-08T02:52:42;101393.94;;;15.34;95.60
38630;BME280;24384;51.988;4.644;2023-08-08T02:55:08;101386.22;;;15.28;94.85
38630;BME280;24384;51.988;4.644;2023-08-08T02:57:33;101388.75;;;15.31;93.52
38630;BME280;24384;51.988;4.644;2023-08-08T02:59:59;101390.34;;;15.35;91.90
38630;BME280;24384;51.988;4.644;2023-08-08T03:02:24;101385.44;;;15.26;92.65
38630;BME280;24384;51.988;4.644;2023-08-08T03:04:49;101384.50;;;15.27;92.41
38630;BME280;24384;51.988;4.644;2023-08-08T03:07:14;101387.28;;;15.24;92.45
38630;BME280;24384;51.988;4.644;2023-08-08T03:09:40;101380.97;;;15.27;92.12
38630;BME280;24384;51.988;4.644;2023-08-08T03:12:05;101389.50;;;15.14;92.75
38630;BME280;24384;51.988;4.644;2023-08-08T03:14:31;101386.25;;;15.08;94.17
38630;BME280;24384;51.988;4.644;2023-08-08T03:16:56;101388.69;;;15.12;93.63
38630;BME280;24384;51.988;4.644;2023-08-08T03:19:21;101387.03;;;15.10;93.72
38630;BME280;24384;51.988;4.644;2023-08-08T03:21:46;101389.34;;;15.17;92.02
38630;BME280;24384;51.988;4.644;2023-08-08T03:24:12;101387.63;;;15.16;92.31
38630;BME280;24384;51.988;4.644;2023-08-08T03:26:37;101381.97;;;15.24;91.50
38630;BME280;24384;51.988;4.644;2023-08-08T03:29:02;101377.13;;;15.34;90.23
38630;BME280;24384;51.988;4.644;2023-08-08T03:31:29;101379.59;;;15.38;89.44
38630;BME280;24384;51.988;4.644;2023-08-08T03:33:54;101376.25;;;15.33;89.86
38630;BME280;24384;51.988;4.644;2023-08-08T03:36:19;101385.97;;;15.34;89.50
38630;BME280;24384;51.988;4.644;2023-08-08T03:38:45;101377.97;;;15.34;89.60
38630;BME280;24384;51.988;4.644;2023-08-08T03:41:11;101373.78;;;15.29;89.84
38630;BME280;24384;51.988;4.644;2023-08-08T03:43:38;101372.28;;;15.23;90.09
38630;BME280;24384;51.988;4.644;2023-08-08T03:46:03;101373.22;;;15.22;90.61
38630;BME280;24384;51.988;4.644;2023-08-08T03:48:30;101365.69;;;15.32;88.98
38630;BME280;24384;51.988;4.644;2023-08-08T03:50:55;101365.75;;;15.30;89.29
38630;BME280;24384;51.988;4.644;2023-08-08T03:53:20;101363.72;;;15.16;91.20
38630;BME280;24384;51.988;4.644;2023-08-08T03:55:45;101365.44;;;15.17;90.86
38630;BME280;24384;51.988;4.644;2023-08-08T03:58:11;101364.03;;;15.09;88.82
38630;BME280;24384;51.988;4.644;2023-08-08T04:00:37;101360.53;;;15.08;89.63
38630;BME280;24384;51.988;4.644;2023-08-08T04:03:04;101358.47;;;15.15;88.76
38630;BME280;24384;51.988;4.644;2023-08-08T04:05:29;101356.50;;;15.20;87.48
38630;BME280;24384;51.988;4.644;2023-08-08T04:07:55;101358.53;;;15.13;88.26
38630;BME280;24384;51.988;4.644;2023-08-08T04:10:20;101359.16;;;15.20;87.30
38630;BME280;24384;51.988;4.644;2023-08-08T04:12:45;101361.81;;;15.20;87.51
38630;BME280;24384;51.988;4.644;2023-08-08T04:15:11;101358.19;;;15.21;87.77
38630;BME280;24384;51.988;4.644;2023-08-08T04:17:36;101358.34;;;14.97;87.91
38630;BME280;24384;51.988;4.644;2023-08-08T04:20:02;101359.00;;;15.02;88.35
38630;BME280;24384;51.988;4.644;2023-08-08T04:22:28;101357.09;;;15.06;88.78
38630;BME280;24384;51.988;4.644;2023-08-08T04:24:53;101357.44;;;14.98;89.93
38630;BME280;24384;51.988;4.644;2023-08-08T04:27:18;101358.28;;;14.99;89.51
38630;BME280;24384;51.988;4.644;2023-08-08T04:29:44;101358.09;;;15.03;89.31
38630;BME280;24384;51.988;4.644;2023-08-08T04:32:09;101350.56;;;14.93;90.14
38630;BME280;24384;51.988;4.644;2023-08-08T04:34:34;101365.72;;;14.91;90.81
38630;BME280;24384;51.988;4.644;2023-08-08T04:36:59;101362.44;;;14.84;92.05
38630;BME280;24384;51.988;4.644;2023-08-08T04:39:25;101358.88;;;14.85;92.30
38630;BME280;24384;51.988;4.644;2023-08-08T04:41:50;101357.63;;;14.94;91.64
38630;BME280;24384;51.988;4.644;2023-08-08T04:44:15;101363.19;;;14.88;91.19
38630;BME280;24384;51.988;4.644;2023-08-08T04:46:40;101372.75;;;14.92;91.38
38630;BME280;24384;51.988;4.644;2023-08-08T04:49:06;101368.31;;;14.92;91.15
38630;BME280;24384;51.988;4.644;2023-08-08T04:51:31;101367.50;;;14.90;91.50
38630;BME280;24384;51.988;4.644;2023-08-08T04:53:56;101367.88;;;14.81;91.50
38630;BME280;24384;51.988;4.644;2023-08-08T04:56:22;101370.28;;;14.87;92.02
38630;BME280;24384;51.988;4.644;2023-08-08T04:58:47;101370.16;;;14.90;91.66
38630;BME280;24384;51.988;4.644;2023-08-08T05:01:12;101385.09;;;14.72;92.30
38630;BME280;24384;51.988;4.644;2023-08-08T05:03:40;101376.69;;;14.83;91.54
38630;BME280;24384;51.988;4.644;2023-08-08T05:06:05;101385.28;;;14.88;89.72
38630;BME280;24384;51.988;4.644;2023-08-08T05:08:30;101379.41;;;14.81;90.94
38630;BME280;24384;51.988;4.644;2023-08-08T05:10:56;101375.31;;;14.73;90.82
38630;BME280;24384;51.988;4.644;2023-08-08T05:13:21;101375.00;;;14.80;90.23
38630;BME280;24384;51.988;4.644;2023-08-08T05:15:46;101370.81;;;14.75;91.91
38630;BME280;24384;51.988;4.644;2023-08-08T05:18:11;101369.81;;;14.77;92.14
38630;BME280;24384;51.988;4.644;2023-08-08T05:20:37;101379.19;;;14.86;91.69
38630;BME280;24384;51.988;4.644;2023-08-08T05:23:02;101375.41;;;15.12;90.63
38630;BME280;24384;51.988;4.644;2023-08-08T05:25:27;101375.47;;;15.31;90.29
38630;BME280;24384;51.988;4.644;2023-08-08T05:27:52;101380.00;;;15.29;89.71
38630;BME280;24384;51.988;4.644;2023-08-08T05:30:18;101372.81;;;15.31;91.41
38630;BME280;24384;51.988;4.644;2023-08-08T05:32:43;101375.53;;;15.30;91.49
38630;BME280;24384;51.988;4.644;2023-08-08T05:35:09;101378.78;;;15.36;91.82
38630;BME280;24384;51.988;4.644;2023-08-08T05:37:34;101371.78;;;15.54;91.83
38630;BME280;24384;51.988;4.644;2023-08-08T05:39:59;101368.47;;;15.68;90.07
38630;BME280;24384;51.988;4.644;2023-08-08T05:42:25;101371.00;;;15.71;91.18
38630;BME280;24384;51.988;4.644;2023-08-08T05:44:50;101373.59;;;15.73;91.23
38630;BME280;24384;51.988;4.644;2023-08-08T05:47:15;101367.44;;;15.91;88.08
38630;BME280;24384;51.988;4.644;2023-08-08T05:49:41;101379.50;;;15.80;88.34
38630;BME280;24384;51.988;4.644;2023-08-08T05:52:08;101379.22;;;15.86;86.95
38630;BME280;24384;51.988;4.644;2023-08-08T05:54:33;101386.78;;;15.95;86.27
38630;BME280;24384;51.988;4.644;2023-08-08T05:56:58;101383.41;;;15.91;84.03
38630;BME280;24384;51.988;4.644;2023-08-08T05:59:24;101380.59;;;15.95;85.65
38630;BME280;24384;51.988;4.644;2023-08-08T06:01:49;101383.03;;;15.99;85.38
38630;BME280;24384;51.988;4.644;2023-08-08T06:04:15;101398.41;;;15.92;85.52
38630;BME280;24384;51.988;4.644;2023-08-08T06:06:40;101385.41;;;16.05;84.77
38630;BME280;24384;51.988;4.644;2023-08-08T06:09:06;101396.50;;;15.96;83.50
38630;BME280;24384;51.988;4.644;2023-08-08T06:11:34;101401.66;;;15.99;81.84
38630;BME280;24384;51.988;4.644;2023-08-08T06:13:59;101396.09;;;15.85;84.99
38630;BME280;24384;51.988;4.644;2023-08-08T06:16:24;101401.53;;;16.02;82.47
38630;BME280;24384;51.988;4.644;2023-08-08T06:18:50;101398.72;;;16.05;83.81
38630;BME280;24384;51.988;4.644;2023-08-08T06:21:15;101403.22;;;16.03;83.68
38630;BME280;24384;51.988;4.644;2023-08-08T06:23:40;101398.75;;;16.23;84.32
38630;BME280;24384;51.988;4.644;2023-08-08T06:26:05;101405.81;;;16.24;83.88
38630;BME280;24384;51.988;4.644;2023-08-08T06:28:31;101395.81;;;16.29;82.94
38630;BME280;24384;51.988;4.644;2023-08-08T06:30:58;101397.03;;;16.22;83.77
38630;BME280;24384;51.988;4.644;2023-08-08T06:33:23;101393.00;;;16.32;83.24
38630;BME280;24384;51.988;4.644;2023-08-08T06:35:48;101390.03;;;16.38;82.66
38630;BME280;24384;51.988;4.644;2023-08-08T06:38:14;101390.00;;;16.21;83.91
38630;BME280;24384;51.988;4.644;2023-08-08T06:40:39;101392.94;;;16.34;84.46
38630;BME280;24384;51.988;4.644;2023-08-08T06:43:04;101397.31;;;16.35;83.97
38630;BME280;24384;51.988;4.644;2023-08-08T06:45:29;101399.94;;;16.54;81.96
38630;BME280;24384;51.988;4.644;2023-08-08T06:47:55;101395.47;;;16.54;81.90
38630;BME280;24384;51.988;4.644;2023-08-08T06:50:20;101390.38;;;16.50;81.16
38630;BME280;24384;51.988;4.644;2023-08-08T06:52:45;101400.38;;;16.44;79.93
38630;BME280;24384;51.988;4.644;2023-08-08T06:55:10;101392.09;;;16.51;81.17
38630;BME280;24384;51.988;4.644;2023-08-08T06:57:36;101392.66;;;16.57;79.66
38630;BME280;24384;51.988;4.644;2023-08-08T07:00:02;101396.53;;;16.69;80.55
38630;BME280;24384;51.988;4.644;2023-08-08T07:02:30;101399.56;;;16.98;79.84
38630;BME280;24384;51.988;4.644;2023-08-08T07:04:55;101394.53;;;17.09;80.26
38630;BME280;24384;51.988;4.644;2023-08-08T07:07:21;101395.47;;;16.91;80.76
38630;BME280;24384;51.988;4.644;2023-08-08T07:09:47;101394.31;;;16.96;79.16
38630;BME280;24384;51.988;4.644;2023-08-08T07:12:13;101402.81;;;16.86;78.59
38630;BME280;24384;51.988;4.644;2023-08-08T07:14:38;101395.34;;;16.75;78.78
38630;BME280;24384;51.988;4.644;2023-08-08T07:17:03;101397.88;;;16.78;79.57
38630;BME280;24384;51.988;4.644;2023-08-08T07:19:29;101398.25;;;16.70;81.17
38630;BME280;24384;51.988;4.644;2023-08-08T07:21:54;101397.34;;;16.89;80.49
38630;BME280;24384;51.988;4.644;2023-08-08T07:24:20;101397.97;;;17.11;81.24
38630;BME280;24384;51.988;4.644;2023-08-08T07:26:45;101391.34;;;17.36;79.84
38630;BME280;24384;51.988;4.644;2023-08-08T07:29:10;101393.56;;;17.28;77.86
38630;BME280;24384;51.988;4.644;2023-08-08T07:31:36;101389.56;;;17.19;77.77
38630;BME280;24384;51.988;4.644;2023-08-08T07:34:01;101386.19;;;17.33;79.72
38630;BME280;24384;51.988;4.644;2023-08-08T07:36:26;101381.44;;;17.71;79.03
38630;BME280;24384;51.988;4.644;2023-08-08T07:38:51;101385.38;;;17.48;73.76
38630;BME280;24384;51.988;4.644;2023-08-08T07:41:17;101381.81;;;17.32;75.58
38630;BME280;24384;51.988;4.644;2023-08-08T07:43:44;101389.41;;;17.22;76.55
38630;BME280;24384;51.988;4.644;2023-08-08T07:46:09;101383.81;;;17.44;77.13
38630;BME280;24384;51.988;4.644;2023-08-08T07:48:35;101384.44;;;17.49;78.55
38630;BME280;24384;51.988;4.644;2023-08-08T07:51:00;101376.09;;;17.56;77.96
38630;BME280;24384;51.988;4.644;2023-08-08T07:53:25;101378.44;;;17.62;76.13
38630;BME280;24384;51.988;4.644;2023-08-08T07:55:51;101377.84;;;17.57;76.92
38630;BME280;24384;51.988;4.644;2023-08-08T07:58:16;101381.09;;;17.62;74.69
38630;BME280;24384;51.988;4.644;2023-08-08T08:00:41;101374.09;;;17.77;74.65
38630;BME280;24384;51.988;4.644;2023-08-08T08:03:06;101375.94;;;17.59;76.35
38630;BME280;24384;51.988;4.644;2023-08-08T08:05:32;101383.50;;;17.50;78.16
38630;BME280;24384;51.988;4.644;2023-08-08T08:07:59;101373.53;;;17.70;77.65
38630;BME280;24384;51.988;4.644;2023-08-08T08:10:24;101373.38;;;17.73;74.98
38630;BME280;24384;51.988;4.644;2023-08-08T08:12:50;101382.84;;;17.63;77.58
38630;BME280;24384;51.988;4.644;2023-08-08T08:15:22;101369.63;;;17.93;73.32
38630;BME280;24384;51.988;4.644;2023-08-08T08:17:47;101380.09;;;17.80;75.68
38630;BME280;24384;51.988;4.644;2023-08-08T08:20:12;101372.34;;;17.76;73.42
38630;BME280;24384;51.988;4.644;2023-08-08T08:22:38;101381.19;;;17.94;76.14
38630;BME280;24384;51.988;4.644;2023-08-08T08:25:05;101389.38;;;17.91;76.00
38630;BME280;24384;51.988;4.644;2023-08-08T08:27:33;101382.22;;;18.23;76.16
38630;BME280;24384;51.988;4.644;2023-08-08T08:29:58;101373.06;;;18.27;73.90
38630;BME280;24384;51.988;4.644;2023-08-08T08:32:23;101385.47;;;17.96;73.04
38630;BME280;24384;51.988;4.644;2023-08-08T08:34:49;101374.94;;;17.77;73.83
38630;BME280;24384;51.988;4.644;2023-08-08T08:37:14;101376.97;;;17.89;76.82
38630;BME280;24384;51.988;4.644;2023-08-08T08:39:39;101385.75;;;18.07;71.94
38630;BME280;24384;51.988;4.644;2023-08-08T08:42:05;101381.84;;;17.81;69.99
38630;BME280;24384;51.988;4.644;2023-08-08T08:44:32;101383.94;;;18.08;71.33
38630;BME280;24384;51.988;4.644;2023-08-08T08:47:02;101381.34;;;17.91;70.80
38630;BME280;24384;51.988;4.644;2023-08-08T08:49:30;101380.41;;;18.07;70.98
38630;BME280;24384;51.988;4.644;2023-08-08T08:51:56;101385.91;;;18.36;73.89
38630;BME280;24384;51.988;4.644;2023-08-08T08:54:23;101394.78;;;18.37;69.40
38630;BME280;24384;51.988;4.644;2023-08-08T08:56:49;101397.88;;;18.29;70.10
38630;BME280;24384;51.988;4.644;2023-08-08T08:59:15;101390.63;;;18.47;64.60
38630;BME280;24384;51.988;4.644;2023-08-08T09:01:40;101391.41;;;18.33;66.66
38630;BME280;24384;51.988;4.644;2023-08-08T09:04:07;101397.16;;;18.57;68.19
38630;BME280;24384;51.988;4.644;2023-08-08T09:06:33;101392.22;;;18.66;66.66
38630;BME280;24384;51.988;4.644;2023-08-08T09:08:58;101391.09;;;18.86;64.62
38630;BME280;24384;51.988;4.644;2023-08-08T09:11:24;101392.94;;;19.00;64.76
38630;BME280;24384;51.988;4.644;2023-08-08T09:13:51;101388.78;;;19.24;64.65
38630;BME280;24384;51.988;4.644;2023-08-08T09:16:16;101406.16;;;19.17;65.67
38630;BME280;24384;51.988;4.644;2023-08-08T09:18:41;101405.00;;;19.07;64.78
38630;BME280;24384;51.988;4.644;2023-08-08T09:21:08;101405.63;;;19.55;66.50
38630;BME280;24384;51.988;4.644;2023-08-08T09:23:33;101405.81;;;19.38;65.34
38630;BME280;24384;51.988;4.644;2023-08-08T09:25:58;101411.56;;;19.01;69.38
38630;BME280;24384;51.988;4.644;2023-08-08T09:28:24;101402.28;;;19.52;68.25
38630;BME280;24384;51.988;4.644;2023-08-08T09:30:50;101401.88;;;19.29;69.16
38630;BME280;24384;51.988;4.644;2023-08-08T09:33:17;101400.84;;;19.46;67.62
38630;BME280;24384;51.988;4.644;2023-08-08T09:35:42;101404.00;;;18.93;68.18
38630;BME280;24384;51.988;4.644;2023-08-08T09:38:08;101406.19;;;18.55;70.51
38630;BME280;24384;51.988;4.644;2023-08-08T09:40:33;101404.22;;;18.42;72.17
38630;BME280;24384;51.988;4.644;2023-08-08T09:42:59;101406.06;;;18.26;70.72
38630;BME280;24384;51.988;4.644;2023-08-08T09:45:24;101407.50;;;18.32;74.55
38630;BME280;24384;51.988;4.644;2023-08-08T09:47:50;101417.31;;;18.63;73.87
38630;BME280;24384;51.988;4.644;2023-08-08T09:50:17;101401.78;;;18.86;70.97
38630;BME280;24384;51.988;4.644;2023-08-08T09:52:43;101412.28;;;18.73;72.06
38630;BME280;24384;51.988;4.644;2023-08-08T09:55:10;101409.22;;;18.65;72.28
38630;BME280;24384;51.988;4.644;2023-08-08T09:57:38;101411.38;;;18.58;72.04
38630;BME280;24384;51.988;4.644;2023-08-08T10:00:04;101417.94;;;18.83;73.75
38630;BME280;24384;51.988;4.644;2023-08-08T10:02:31;101417.63;;;19.19;68.47
38630;BME280;24384;51.988;4.644;2023-08-08T10:04:57;101399.81;;;19.04;69.19
38630;BME280;24384;51.988;4.644;2023-08-08T10:07:23;101407.91;;;19.32;70.23
38630;BME280;24384;51.988;4.644;2023-08-08T10:09:48;101416.88;;;19.17;70.10
38630;BME280;24384;51.988;4.644;2023-08-08T10:12:14;101399.59;;;19.37;66.16
38630;BME280;24384;51.988;4.644;2023-08-08T10:14:42;101415.22;;;19.14;69.12
38630;BME280;24384;51.988;4.644;2023-08-08T10:17:08;101411.63;;;19.30;71.92
38630;BME280;24384;51.988;4.644;2023-08-08T10:19:34;101409.50;;;19.35;70.90
38630;BME280;24384;51.988;4.644;2023-08-08T10:22:04;101409.25;;;18.79;70.57
38630;BME280;24384;51.988;4.644;2023-08-08T10:24:38;101413.47;;;18.99;67.75
38630;BME280;24384;51.988;4.644;2023-08-08T10:27:04;101411.47;;;19.03;70.54
38630;BME280;24384;51.988;4.644;2023-08-08T10:29:32;101408.59;;;18.75;71.07
38630;BME280;24384;51.988;4.644;2023-08-08T10:32:03;101414.03;;;18.74;70.28
38630;BME280;24384;51.988;4.644;2023-08-08T10:34:44;101410.91;;;19.12;69.85
38630;BME280;24384;51.988;4.644;2023-08-08T10:37:13;101412.72;;;19.11;68.58
38630;BME280;24384;51.988;4.644;2023-08-08T10:39:54;101417.34;;;19.24;71.64
38630;BME280;24384;51.988;4.644;2023-08-08T10:42:23;101421.94;;;19.22;68.49
38630;BME280;24384;51.988;4.644;2023-08-08T10:45:00;101406.59;;;19.68;68.12
38630;BME280;24384;51.988;4.644;2023-08-08T10:49:59;101404.63;;;20.14;64.22
38630;BME280;24384;51.988;4.644;2023-08-08T10:52:24;101406.53;;;20.26;64.46
38630;BME280;24384;51.988;4.644;2023-08-08T10:54:53;101403.44;;;20.32;65.48
38630;BME280;24384;51.988;4.644;2023-08-08T10:57:20;101402.19;;;19.96;65.61
38630;BME280;24384;51.988;4.644;2023-08-08T10:59:49;101418.06;;;19.99;66.09
38630;BME280;24384;51.988;4.644;2023-08-08T11:02:14;101413.72;;;19.54;66.53
38630;BME280;24384;51.988;4.644;2023-08-08T11:04:40;101411.44;;;19.33;69.26
38630;BME280;24384;51.988;4.644;2023-08-08T11:07:06;101406.56;;;19.40;70.93
38630;BME280;24384;51.988;4.644;2023-08-08T11:09:32;101401.63;;;19.77;66.70
38630;BME280;24384;51.988;4.644;2023-08-08T11:11:57;101401.44;;;19.94;68.11
38630;BME280;24384;51.988;4.644;2023-08-08T11:14:22;101410.19;;;19.67;67.64
38630;BME280;24384;51.988;4.644;2023-08-08T11:16:50;101416.94;;;19.16;67.40
38630;BME280;24384;51.988;4.644;2023-08-08T11:19:16;101417.72;;;19.18;73.65
38630;BME280;24384;51.988;4.644;2023-08-08T11:21:45;101406.56;;;19.25;70.33
38630;BME280;24384;51.988;4.644;2023-08-08T11:24:11;101408.94;;;19.44;70.59
38630;BME280;24384;51.988;4.644;2023-08-08T11:26:39;101410.13;;;19.55;70.03
38630;BME280;24384;51.988;4.644;2023-08-08T11:29:05;101409.13;;;19.12;71.83
38630;BME280;24384;51.988;4.644;2023-08-08T11:31:36;101403.34;;;19.63;73.09
38630;BME280;24384;51.988;4.644;2023-08-08T11:34:03;101389.97;;;19.78;70.36
38630;BME280;24384;51.988;4.644;2023-08-08T11:36:32;101405.81;;;20.10;68.79
38630;BME280;24384;51.988;4.644;2023-08-08T11:39:00;101400.44;;;20.51;67.62
38630;BME280;24384;51.988;4.644;2023-08-08T11:41:29;101404.97;;;20.64;66.60
38630;BME280;24384;51.988;4.644;2023-08-08T11:43:55;101402.78;;;20.83;68.05
38630;BME280;24384;51.988;4.644;2023-08-08T11:46:23;101403.63;;;20.44;66.64
38630;BME280;24384;51.988;4.644;2023-08-08T11:48:48;101400.50;;;20.23;68.18
38630;BME280;24384;51.988;4.644;2023-08-08T11:51:15;101403.41;;;20.47;69.58
38630;BME280;24384;51.988;4.644;2023-08-08T11:53:53;101409.53;;;20.49;66.88
38630;BME280;24384;51.988;4.644;2023-08-08T11:56:19;101399.50;;;19.96;67.16
38630;BME280;24384;51.988;4.644;2023-08-08T11:58:48;101402.28;;;19.66;69.84
38630;BME280;24384;51.988;4.644;2023-08-08T12:01:14;101401.81;;;20.02;69.83
38630;BME280;24384;51.988;4.644;2023-08-08T12:03:40;101400.00;;;20.30;69.41
38630;BME280;24384;51.988;4.644;2023-08-08T12:06:15;101394.41;;;20.48;69.53
38630;BME280;24384;51.988;4.644;2023-08-08T12:08:42;101398.16;;;20.45;69.56
38630;BME280;24384;51.988;4.644;2023-08-08T12:11:09;101382.00;;;20.32;70.08
38630;BME280;24384;51.988;4.644;2023-08-08T12:13:37;101396.00;;;19.96;69.62
38630;BME280;24384;51.988;4.644;2023-08-08T12:16:05;101382.13;;;19.89;70.49
38630;BME280;24384;51.988;4.644;2023-08-08T12:18:32;101387.66;;;19.86;71.28
38630;BME280;24384;51.988;4.644;2023-08-08T12:20:57;101388.31;;;20.04;69.00
38630;BME280;24384;51.988;4.644;2023-08-08T12:23:23;101387.88;;;20.25;70.44
38630;BME280;24384;51.988;4.644;2023-08-08T12:25:49;101394.56;;;20.32;70.46
38630;BME280;24384;51.988;4.644;2023-08-08T12:28:14;101382.41;;;19.84;69.03
38630;BME280;24384;51.988;4.644;2023-08-08T12:30:40;101392.25;;;19.70;69.23
38630;BME280;24384;51.988;4.644;2023-08-08T12:33:05;101384.91;;;19.88;66.34
38630;BME280;24384;51.988;4.644;2023-08-08T12:35:30;101394.22;;;20.24;66.88
38630;BME280;24384;51.988;4.644;2023-08-08T12:37:55;101389.50;;;20.27;66.27
38630;BME280;24384;51.988;4.644;2023-08-08T12:40:21;101390.84;;;20.34;69.68
38630;BME280;24384;51.988;4.644;2023-08-08T12:42:46;101401.47;;;20.49;68.64
38630;BME280;24384;51.988;4.644;2023-08-08T12:45:13;101403.63;;;20.44;65.31